sensor_id;sensor_type;location;lat;lon;timestamp;P1;durP1;ratioP1;P2;durP2;ratioP2
42092;SDS011;28974;50.316;18.960;2024-02-14T00:02:53;158.15;;;58.10;;
42092;SDS011;28974;50.316;18.960;2024-02-14T00:14:55;160.35;;;60.83;;
42092;SDS011;28974;50.316;18.960;2024-02-14T00:26:58;156.75;;;60.63;;
42092;SDS011;28974;50.316;18.960;2024-02-14T00:39:01;149.18;;;56.40;;
42092;SDS011;28974;50.316;18.960;2024-02-14T00:51:04;148.68;;;58.75;;
42092;SDS011;28974;50.316;18.960;2024-02-14T01:03:07;143.05;;;52.75;;
42092;SDS011;28974;50.316;18.960;2024-02-14T01:15:13;132.53;;;53.47;;
42092;SDS011;28974;50.316;18.960;2024-02-14T01:27:17;161.43;;;57.15;;
42092;SDS011;28974;50.316;18.960;2024-02-14T01:39:19;145.52;;;54.33;;
42092;SDS011;28974;50.316;18.960;2024-02-14T01:51:24;139.73;;;54.65;;
42092;SDS011;28974;50.316;18.960;2024-02-14T02:03:26;131.98;;;54.42;;
42092;SDS011;28974;50.316;18.960;2024-02-14T02:15:28;141.95;;;57.45;;
42092;SDS011;28974;50.316;18.960;2024-02-14T02:27:32;138.35;;;53.72;;
42092;SDS011;28974;50.316;18.960;2024-02-14T02:39:36;132.95;;;53.65;;
42092;SDS011;28974;50.316;18.960;2024-02-14T02:51:39;158.55;;;57.90;;
42092;SDS011;28974;50.316;18.960;2024-02-14T03:03:41;159.07;;;60.47;;
42092;SDS011;28974;50.316;18.960;2024-02-14T03:15:44;161.10;;;62.53;;
42092;SDS011;28974;50.316;18.960;2024-02-14T03:27:47;177.48;;;65.40;;
42092;SDS011;28974;50.316;18.960;2024-02-14T03:39:55;147.63;;;60.20;;
42092;SDS011;28974;50.316;18.960;2024-02-14T03:51:59;168.85;;;62.30;;
42092;SDS011;28974;50.316;18.960;2024-02-14T04:04:02;177.27;;;62.10;;
42092;SDS011;28974;50.316;18.960;2024-02-14T04:16:06;160.18;;;62.83;;
42092;SDS011;28974;50.316;18.960;2024-02-14T04:28:10;161.75;;;61.33;;
42092;SDS011;28974;50.316;18.960;2024-02-14T04:40:14;154.55;;;58.45;;
42092;SDS011;28974;50.316;18.960;2024-02-14T04:52:16;177.70;;;68.20;;
42092;SDS011;28974;50.316;18.960;2024-02-14T05:04:19;162.85;;;64.40;;
42092;SDS011;28974;50.316;18.960;2024-02-14T05:16:21;201.10;;;68.88;;
42092;SDS011;28974;50.316;18.960;2024-02-14T05:28:24;166.50;;;60.30;;
42092;SDS011;28974;50.316;18.960;2024-02-14T05:40:27;159.20;;;60.60;;
42092;SDS011;28974;50.316;18.960;2024-02-14T05:52:29;197.13;;;67.28;;
42092;SDS011;28974;50.316;18.960;2024-02-14T06:04:31;207.40;;;72.28;;
42092;SDS011;28974;50.316;18.960;2024-02-14T06:16:35;155.75;;;61.65;;
42092;SDS011;28974;50.316;18.960;2024-02-14T06:28:36;166.85;;;64.05;;
42092;SDS011;28974;50.316;18.960;2024-02-14T06:40:39;151.02;;;64.15;;
42092;SDS011;28974;50.316;18.960;2024-02-14T06:52:42;159.80;;;63.28;;
42092;SDS011;28974;50.316;18.960;2024-02-14T07:04:47;108.60;;;44.97;;
42092;SDS011;28974;50.316;18.960;2024-02-14T07:16:48;118.65;;;49.88;;
42092;SDS011;28974;50.316;18.960;2024-02-14T07:28:51;117.15;;;48.47;;
42092;SDS011;28974;50.316;18.960;2024-02-14T07:40:53;111.30;;;47.20;;
42092;SDS011;28974;50.316;18.960;2024-02-14T07:52:57;97.38;;;46.28;;
42092;SDS011;28974;50.316;18.960;2024-02-14T08:05:01;109.50;;;46.25;;
42092;SDS011;28974;50.316;18.960;2024-02-14T08:17:03;97.13;;;44.40;;
42092;SDS011;28974;50.316;18.960;2024-02-14T08:29:08;99.95;;;42.30;;
42092;SDS011;28974;50.316;18.960;2024-02-14T08:41:11;100.85;;;41.28;;
42092;SDS011;28974;50.316;18.960;2024-02-14T08:53:13;77.93;;;36.75;;
42092;SDS011;28974;50.316;18.960;2024-02-14T09:05:15;76.68;;;34.15;;
42092;SDS011;28974;50.316;18.960;2024-02-14T09:17:19;71.18;;;30.52;;
42092;SDS011;28974;50.316;18.960;2024-02-14T09:29:20;61.80;;;24.85;;
42092;SDS011;28974;50.316;18.960;2024-02-14T09:41:25;61.13;;;23.88;;
42092;SDS011;28974;50.316;18.960;2024-02-14T09:53:27;54.30;;;21.67;;
42092;SDS011;28974;50.316;18.960;2024-02-14T10:05:29;23.52;;;11.57;;
42092;SDS011;28974;50.316;18.960;2024-02-14T10:17:32;29.98;;;13.48;;
42092;SDS011;28974;50.316;18.960;2024-02-14T10:29:33;29.83;;;12.25;;
42092;SDS011;28974;50.316;18.960;2024-02-14T10:41:34;28.45;;;13.13;;
42092;SDS011;28974;50.316;18.960;2024-02-14T10:53:36;38.55;;;14.40;;
42092;SDS011;28974;50.316;18.960;2024-02-14T11:05:44;22.40;;;10.07;;
42092;SDS011;28974;50.316;18.960;2024-02-14T11:17:47;20.10;;;8.52;;
42092;SDS011;28974;50.316;18.960;2024-02-14T11:29:58;30.73;;;9.75;;
42092;SDS011;28974;50.316;18.960;2024-02-14T11:42:01;18.25;;;9.00;;
42092;SDS011;28974;50.316;18.960;2024-02-14T11:54:03;22.92;;;8.50;;
42092;SDS011;28974;50.316;18.960;2024-02-14T12:06:07;32.97;;;8.95;;
42092;SDS011;28974;50.316;18.960;2024-02-14T12:18:09;25.42;;;8.88;;
42092;SDS011;28974;50.316;18.960;2024-02-14T12:30:12;28.27;;;10.00;;
42092;SDS011;28974;50.316;18.960;2024-02-14T12:42:15;19.27;;;7.82;;
42092;SDS011;28974;50.316;18.960;2024-02-14T12:54:16;21.25;;;7.68;;
42092;SDS011;28974;50.316;18.960;2024-02-14T13:06:18;23.05;;;8.88;;
42092;SDS011;28974;50.316;18.960;2024-02-14T13:18:22;20.77;;;7.07;;
42092;SDS011;28974;50.316;18.960;2024-02-14T13:30:28;15.85;;;7.00;;
42092;SDS011;28974;50.316;18.960;2024-02-14T13:42:31;24.08;;;8.40;;
42092;SDS011;28974;50.316;18.960;2024-02-14T13:54:33;20.95;;;7.53;;
42092;SDS011;28974;50.316;18.960;2024-02-14T14:06:34;23.90;;;8.18;;
42092;SDS011;28974;50.316;18.960;2024-02-14T14:18:37;27.90;;;9.80;;
42092;SDS011;28974;50.316;18.960;2024-02-14T14:30:43;31.60;;;11.43;;
42092;SDS011;28974;50.316;18.960;2024-02-14T14:42:45;15.52;;;7.43;;
42092;SDS011;28974;50.316;18.960;2024-02-14T14:54:47;23.17;;;10.30;;
42092;SDS011;28974;50.316;18.960;2024-02-14T15:06:50;31.42;;;11.50;;
42092;SDS011;28974;50.316;18.960;2024-02-14T15:18:53;65.32;;;21.33;;
42092;SDS011;28974;50.316;18.960;2024-02-14T15:30:55;48.45;;;18.15;;
42092;SDS011;28974;50.316;18.960;2024-02-14T15:43:15;46.03;;;17.48;;
42092;SDS011;28974;50.316;18.960;2024-02-14T15:55:17;49.35;;;22.10;;
42092;SDS011;28974;50.316;18.960;2024-02-14T16:07:19;53.97;;;21.83;;
42092;SDS011;28974;50.316;18.960;2024-02-14T16:19:21;62.10;;;27.23;;
42092;SDS011;28974;50.316;18.960;2024-02-14T16:31:23;60.45;;;21.90;;
42092;SDS011;28974;50.316;18.960;2024-02-14T16:43:26;225.88;;;62.08;;
42092;SDS011;28974;50.316;18.960;2024-02-14T16:55:29;61.00;;;23.73;;
42092;SDS011;28974;50.316;18.960;2024-02-14T17:07:30;71.05;;;25.67;;
42092;SDS011;28974;50.316;18.960;2024-02-14T17:19:33;69.60;;;25.60;;
42092;SDS011;28974;50.316;18.960;2024-02-14T17:31:34;71.72;;;24.90;;
42092;SDS011;28974;50.316;18.960;2024-02-14T17:43:38;55.90;;;21.52;;
42092;SDS011;28974;50.316;18.960;2024-02-14T17:55:40;64.25;;;25.33;;
42092;SDS011;28974;50.316;18.960;2024-02-14T18:07:42;90.25;;;31.98;;
42092;SDS011;28974;50.316;18.960;2024-02-14T18:19:44;63.88;;;25.15;;
42092;SDS011;28974;50.316;18.960;2024-02-14T18:31:46;73.43;;;26.75;;
42092;SDS011;28974;50.316;18.960;2024-02-14T18:43:48;50.22;;;20.52;;
42092;SDS011;28974;50.316;18.960;2024-02-14T18:55:48;60.90;;;27.27;;
42092;SDS011;28974;50.316;18.960;2024-02-14T19:07:51;58.00;;;24.52;;
42092;SDS011;28974;50.316;18.960;2024-02-14T19:19:53;71.82;;;24.60;;
42092;SDS011;28974;50.316;18.960;2024-02-14T19:31:56;97.40;;;34.05;;
42092;SDS011;28974;50.316;18.960;2024-02-14T19:43:57;89.32;;;36.22;;
42092;SDS011;28974;50.316;18.960;2024-02-14T19:56:00;78.43;;;31.95;;
42092;SDS011;28974;50.316;18.960;2024-02-14T20:08:05;83.63;;;30.40;;
42092;SDS011;28974;50.316;18.960;2024-02-14T20:20:08;71.18;;;29.08;;
42092;SDS011;28974;50.316;18.960;2024-02-14T20:32:11;72.00;;;27.38;;
42092;SDS011;28974;50.316;18.960;2024-02-14T20:44:14;80.63;;;31.42;;
42092;SDS011;28974;50.316;18.960;2024-02-14T20:56:16;78.03;;;32.78;;
42092;SDS011;28974;50.316;18.960;2024-02-14T21:08:18;91.78;;;35.33;;
42092;SDS011;28974;50.316;18.960;2024-02-14T21:20:22;68.60;;;26.23;;
42092;SDS011;28974;50.316;18.960;2024-02-14T21:32:28;79.78;;;28.73;;
42092;SDS011;28974;50.316;18.960;2024-02-14T21:44:31;101.97;;;35.08;;
42092;SDS011;28974;50.316;18.960;2024-02-14T21:56:33;82.10;;;30.10;;
42092;SDS011;28974;50.316;18.960;2024-02-14T22:08:35;85.30;;;33.88;;
42092;SDS011;28974;50.316;18.960;2024-02-14T22:20:37;80.43;;;31.92;;
42092;SDS011;28974;50.316;18.960;2024-02-14T22:32:39;72.90;;;25.77;;
42092;SDS011;28974;50.316;18.960;2024-02-14T22:44:40;65.70;;;26.23;;
42092;SDS011;28974;50.316;18.960;2024-02-14T22:56:43;61.58;;;25.33;;
42092;SDS011;28974;50.316;18.960;2024-02-14T23:08:44;86.22;;;30.00;;
42092;SDS011;28974;50.316;18.960;2024-02-14T23:20:49;63.83;;;26.65;;
42092;SDS011;28974;50.316;18.960;2024-02-14T23:32:51;52.95;;;23.65;;
42092;SDS011;28974;50.316;18.960;2024-02-14T23:44:54;60.58;;;25.75;;
42092;SDS011;28974;50.316;18.960;2024-02-14T23:56:58;71.18;;;27.80;;
